Time;durP1;ratioP1;P1;durP2;ratioP2;P2;SDS_P1;SDS_P2;PMS_P1;PMS_P2;Temp;Humidity;BMP_temperature;BMP_pressure;BME280_temperature;BME280_humidity;BME280_pressure;Samples;Min_cycle;Max_cycle;Signal;HPM_P1;HPM_P2
2022/04/11 10:27:25;;;;;;;3.83;1.35;;;;;;;11.43;47.97;99152.91;5024964;28;20877;-82
2022/04/11 10:29:52;;;;;;;2.90;1.40;;;;;;;11.66;49.99;99135.56;5002809;28;21032;-84
2022/04/11 10:32:23;;;;;;;1.33;1.13;;;;;;;11.87;46.18;99142.91;5002241;28;20050;-86
2022/04/11 10:34:54;;;;;;;3.13;1.98;;;;;;;11.92;45.92;99129.53;4991087;28;20129;-86
2022/04/11 10:37:27;;;;;;;4.22;2.30;;;;;;;12.03;46.10;99145.41;4984890;28;20061;-86
2022/04/11 10:40:14;;;;;;;1.83;1.35;;;;;;;12.03;45.71;99134.53;5000823;28;20095;-86
2022/04/11 10:43:13;;;;;;;2.75;1.58;;;;;;;12.17;44.92;99140.94;5006609;28;20355;-86
2022/04/11 10:45:45;;;;;;;3.67;1.17;;;;;;;12.19;43.57;99121.66;5021615;28;20055;-86
2022/04/11 10:48:17;;;;;;;1.52;1.20;;;;;;;12.27;45.04;99118.81;4997124;28;20148;-85
2022/04/11 10:50:45;;;;;;;3.45;2.15;;;;;;;12.55;46.22;99123.41;4992386;28;20053;-86
2022/04/11 10:53:22;;;;;;;3.00;1.42;;;;;;;12.59;42.61;99130.16;5025436;28;20060;-87
2022/04/11 10:56:04;;;;;;;4.88;1.58;;;;;;;12.43;42.09;99125.00;4999202;28;20051;-86
2022/04/11 10:58:47;;;;;;;2.08;1.30;;;;;;;12.47;42.38;99123.56;5000478;28;20062;-86
2022/04/11 11:01:14;;;;;;;1.63;1.02;;;;;;;12.37;40.81;99102.97;5030818;28;20456;-86
2022/04/11 11:04:00;;;;;;;3.08;1.27;;;;;;;12.52;43.42;99093.81;5037450;28;20435;-86
2022/04/11 11:06:27;;;;;;;2.85;1.17;;;;;;;12.79;44.66;99100.28;5003887;28;20064;-86
2022/04/11 11:08:54;;;;;;;3.35;1.35;;;;;;;12.99;42.86;99088.63;4988314;28;20405;-87
2022/04/11 11:11:26;;;;;;;1.92;1.00;;;;;;;12.73;39.56;99077.38;5009804;28;20050;-86
2022/04/11 11:13:56;;;;;;;6.78;1.23;;;;;;;13.06;46.33;99078.59;5007980;28;20054;-87
2022/04/11 11:16:37;;;;;;;2.78;1.50;;;;;;;13.32;42.71;99087.94;5014666;28;20046;-86
2022/04/11 11:19:17;;;;;;;2.22;1.20;;;;;;;13.22;41.74;99078.25;5097828;28;20059;-87
2022/04/11 11:22:05;;;;;;;1.80;1.33;;;;;;;13.12;39.48;99069.59;4993863;28;20111;-88
2022/04/11 11:24:33;;;;;;;1.83;1.15;;;;;;;13.14;38.68;99072.09;4986483;28;20061;-87
2022/04/11 11:27:05;;;;;;;2.03;1.00;;;;;;;13.01;40.68;99059.28;4994388;28;20512;-87
2022/04/11 11:29:44;;;;;;;3.45;0.77;;;;;;;13.38;42.00;99082.53;5018109;28;20054;-87
2022/04/11 11:32:13;;;;;;;2.35;0.82;;;;;;;13.58;40.00;99059.91;5005377;28;20050;-88
2022/04/11 11:34:41;;;;;;;1.00;0.90;;;;;;;13.68;38.56;99064.94;4994073;28;20054;-87
2022/04/11 11:37:11;;;;;;;2.65;0.75;;;;;;;13.64;36.24;99061.81;4991285;28;20331;-88
2022/04/11 11:39:39;;;;;;;2.25;1.02;;;;;;;13.63;39.00;99043.72;4989758;28;20050;-87
2022/04/11 11:42:09;;;;;;;4.85;1.17;;;;;;;13.50;38.44;99046.44;4986266;28;20391;-87
2022/04/11 11:44:44;;;;;;;2.15;1.10;;;;;;;13.85;40.69;99049.00;5008231;28;20055;-86
2022/04/11 11:47:10;;;;;;;4.38;1.33;;;;;;;14.10;37.29;99050.03;5026589;28;20033;-87
2022/04/11 11:49:42;;;;;;;1.60;1.10;;;;;;;14.22;35.83;99038.50;5006223;28;20507;-87
2022/04/11 11:52:13;;;;;;;2.85;1.10;;;;;;;13.90;38.30;99032.81;4983755;28;20069;-87
2022/04/11 11:54:41;;;;;;;1.58;0.98;;;;;;;14.11;40.00;99020.84;4980659;28;20050;-87
2022/04/11 11:57:13;;;;;;;1.98;1.25;;;;;;;14.33;37.77;99024.16;4972079;28;20164;-87
2022/04/11 11:59:49;;;;;;;2.17;1.27;;;;;;;14.41;37.04;99010.28;4982803;28;20073;-88
2022/04/11 12:05:00;;;;;;;2.45;0.70;;;;;;;14.54;37.06;99011.28;4984207;28;20050;-88
2022/04/11 12:07:26;;;;;;;1.33;1.02;;;;;;;14.43;35.45;99026.47;5038833;28;20042;-87
2022/04/11 12:09:53;;;;;;;2.40;0.80;;;;;;;14.43;37.50;99008.16;4990043;28;20049;-87
2022/04/11 12:12:20;;;;;;;3.67;0.90;;;;;;;14.51;35.61;99007.06;4983312;28;20051;-88
2022/04/11 12:15:10;;;;;;;2.03;0.95;;;;;;;14.42;35.16;99003.75;4985986;28;20093;-88
2022/04/11 12:17:39;;;;;;;1.60;0.93;;;;;;;14.07;35.74;98997.69;4971314;28;20050;-88
2022/04/11 12:20:12;;;;;;;3.08;1.02;;;;;;;14.49;38.38;98987.31;4988492;28;20398;-89
2022/04/11 12:22:39;;;;;;;2.88;0.70;;;;;;;14.71;35.89;98985.19;5000149;28;20057;-88
2022/04/11 12:25:25;;;;;;;3.00;1.08;;;;;;;14.82;35.21;98983.66;4990750;28;20058;-88
2022/04/11 12:27:52;;;;;;;3.67;0.98;;;;;;;14.80;34.27;98988.53;4977253;28;20141;-88
2022/04/11 12:30:20;;;;;;;1.25;0.90;;;;;;;14.74;36.36;98978.41;5017495;28;20052;-88
2022/04/11 12:32:47;;;;;;;2.95;1.20;;;;;;;14.88;35.14;98982.78;4987597;28;20050;-88
2022/04/11 12:35:15;;;;;;;3.58;1.30;;;;;;;15.14;37.94;98970.03;4976103;28;20069;-89
2022/04/11 12:37:48;;;;;;;1.15;0.70;;;;;;;15.27;35.51;98958.16;5009212;28;20055;-88
2022/04/11 12:40:15;;;;;;;1.42;1.05;;;;;;;15.49;33.44;98983.28;4973404;28;20061;-88
2022/04/11 12:42:42;;;;;;;2.75;0.90;;;;;;;15.68;35.47;98974.06;4988181;28;20046;-89
2022/04/11 12:45:10;;;;;;;2.90;1.17;;;;;;;15.81;33.00;98962.22;4987923;28;20077;-88
2022/04/11 12:48:04;;;;;;;3.25;1.08;;;;;;;15.62;33.29;98964.00;5011728;28;20040;-89
2022/04/11 12:50:31;;;;;;;4.45;1.10;;;;;;;15.79;34.88;98966.22;4986314;28;20077;-89
2022/04/11 12:52:58;;;;;;;5.30;0.90;;;;;;;15.90;36.76;98955.38;4995900;28;20090;-88
2022/04/11 12:55:26;;;;;;;1.23;0.85;;;;;;;16.00;31.38;98965.00;4988071;28;20058;-89
2022/04/11 12:58:04;;;;;;;3.58;1.02;;;;;;;15.72;34.21;98967.09;4990895;28;20404;-89
2022/04/11 13:00:32;;;;;;;5.72;0.82;;;;;;;15.56;32.77;98949.28;4979245;28;20143;-89
2022/04/11 13:02:59;;;;;;;1.30;0.80;;;;;;;15.77;32.52;98947.22;5002843;28;20150;-89
2022/04/11 13:05:27;;;;;;;2.65;1.08;;;;;;;15.89;35.79;98929.00;4988433;28;20074;-88
2022/04/11 13:07:55;;;;;;;1.88;0.80;;;;;;;16.03;32.47;98940.72;4981706;28;20050;-88
2022/04/11 13:10:23;;;;;;;1.45;0.90;;;;;;;16.27;31.73;98941.72;4985357;28;20065;-88
2022/04/11 13:12:50;;;;;;;2.20;1.00;;;;;;;16.39;31.04;98932.72;4978388;28;20054;-90
2022/04/11 13:15:17;;;;;;;1.08;0.90;;;;;;;16.49;32.92;98926.72;4975359;28;20058;-90
2022/04/11 13:20:31;;;;;;;1.88;0.95;;;;;;;16.37;33.86;98912.94;4974717;28;20085;-89
2022/04/11 13:23:00;;;;;;;1.05;0.75;;;;;;;16.37;32.58;98907.44;4976497;28;20059;-89
2022/04/11 13:25:28;;;;;;;2.35;0.65;;;;;;;16.42;30.98;98916.66;4981418;28;20047;-89
2022/04/11 13:27:57;;;;;;;2.15;0.95;;;;;;;16.41;32.73;98914.97;4985984;28;20046;-89
2022/04/11 13:30:24;;;;;;;2.10;0.80;;;;;;;16.55;31.11;98915.66;4987811;28;20050;-90
2022/04/11 13:32:53;;;;;;;1.83;0.63;;;;;;;16.81;32.40;98894.41;4986382;28;20050;-89
2022/04/11 13:35:31;;;;;;;1.42;0.80;;;;;;;16.53;32.47;98898.59;4980916;28;20057;-90
2022/04/11 13:38:00;;;;;;;5.30;0.90;;;;;;;16.50;31.92;98896.31;4985567;28;20054;-90
2022/04/11 13:40:31;;;;;;;2.97;0.80;;;;;;;16.92;32.86;98893.69;4978938;28;20108;-89
2022/04/11 13:42:58;;;;;;;1.83;0.77;;;;;;;16.84;31.56;98902.19;4980444;28;20145;-90
2022/04/11 13:45:27;;;;;;;1.63;1.05;;;;;;;17.01;31.25;98894.16;4977081;28;20100;-88
2022/04/11 13:48:02;;;;;;;1.52;1.00;;;;;;;16.96;32.13;98881.13;4989541;28;20039;-90
2022/04/11 13:50:33;;;;;;;1.63;1.02;;;;;;;16.86;29.30;98880.84;4982229;28;20051;-90
2022/04/11 13:53:17;;;;;;;2.90;0.90;;;;;;;17.04;32.16;98876.38;4987141;28;20080;-91
2022/04/11 13:55:45;;;;;;;1.40;0.95;;;;;;;17.30;29.65;98889.72;4981525;28;20055;-91
2022/04/11 13:58:16;;;;;;;1.70;1.17;;;;;;;16.96;27.61;98867.41;4982015;28;20051;-91
2022/04/11 14:00:46;;;;;;;1.65;1.17;;;;;;;16.64;32.44;98870.34;4980044;28;20504;-89
2022/04/11 14:03:13;;;;;;;1.58;1.20;;;;;;;16.72;30.56;98873.84;4976564;28;20062;-90
2022/04/11 14:05:43;;;;;;;3.38;1.33;;;;;;;16.79;31.38;98871.88;4970569;28;20460;-89
2022/04/11 14:08:13;;;;;;;3.37;1.20;;;;;;;16.81;30.90;98867.78;4971618;28;20057;-91
2022/04/11 14:10:40;;;;;;;1.08;0.98;;;;;;;16.77;30.42;98876.72;4980052;28;20286;-93
2022/04/11 14:13:09;;;;;;;3.60;1.55;;;;;;;17.01;29.54;98846.66;4974358;28;20042;-93
2022/04/11 14:15:38;;;;;;;2.47;1.30;;;;;;;16.85;30.96;98845.41;4985843;28;20104;-92
2022/04/11 14:18:05;;;;;;;2.70;1.20;;;;;;;17.16;33.20;98847.91;4976392;28;20073;-91
2022/04/11 14:20:33;;;;;;;1.70;1.20;;;;;;;17.39;34.98;98853.63;4986327;28;20050;-92
2022/04/11 14:23:02;;;;;;;4.43;1.20;;;;;;;17.37;30.19;98840.13;4989479;28;20092;-92
2022/04/11 14:25:36;;;;;;;1.38;1.17;;;;;;;17.17;30.60;98835.81;4985563;28;20565;-90
2022/04/11 14:28:15;;;;;;;;;;;;;;;;;;;;;
2022/04/11 14:30:50;;;;;;;4.20;1.67;;;;;;;17.25;31.86;98834.66;4982938;28;20053;-91
2022/04/11 14:33:19;;;;;;;1.92;1.63;;;;;;;17.12;30.92;98838.44;4989314;28;20458;-92
2022/04/11 14:35:46;;;;;;;2.90;1.53;;;;;;;17.33;32.48;98830.72;4978454;28;20050;-91
2022/04/11 14:38:14;;;;;;;2.90;1.55;;;;;;;17.05;31.84;98831.38;4977990;28;20498;-92
2022/04/11 14:40:47;;;;;;;3.95;1.77;;;;;;;17.25;31.44;98831.91;4989191;28;20050;-91
2022/04/11 14:43:17;;;;;;;2.17;1.52;;;;;;;17.44;33.38;98831.81;4990823;28;20089;-91
2022/04/11 14:48:30;;;;;;;1.92;1.38;;;;;;;17.07;32.55;98821.00;4990510;28;20096;-93
2022/04/11 14:50:58;;;;;;;3.47;1.70;;;;;;;17.28;33.99;98812.22;4980203;28;20058;-93
2022/04/11 14:53:43;;;;;;;3.53;1.70;;;;;;;17.15;31.08;98806.94;4980739;28;20555;-93
2022/04/11 14:56:27;;;;;;;2.65;1.63;;;;;;;17.21;31.60;98799.63;4979625;28;20490;-94
2022/04/11 14:58:54;;;;;;;4.93;1.60;;;;;;;17.52;32.34;98817.69;4987055;28;20054;-87
2022/04/11 15:01:24;;;;;;;2.83;1.70;;;;;;;17.64;32.37;98815.81;4989411;28;20054;-91
2022/04/11 15:04:14;;;;;;;4.72;2.22;;;;;;;17.51;31.64;98794.06;4989100;28;20053;-86
2022/04/11 15:06:42;;;;;;;3.20;1.85;;;;;;;17.71;32.84;98793.69;4976152;28;20049;-90
2022/04/11 15:09:10;;;;;;;4.07;1.70;;;;;;;17.61;32.64;98793.44;4999871;28;20048;-91
2022/04/11 15:11:41;;;;;;;4.15;2.13;;;;;;;17.52;29.67;98796.56;4981458;28;20055;-91
2022/04/11 15:14:08;;;;;;;3.53;1.60;;;;;;;17.03;30.66;98784.94;4977652;28;20056;-91
2022/04/11 15:16:44;;;;;;;2.45;1.60;;;;;;;16.92;30.49;98770.13;4973204;28;20077;-92
2022/04/11 15:19:10;;;;;;;1.95;1.52;;;;;;;17.03;31.91;98795.09;4992786;28;20057;-90
2022/04/11 15:21:37;;;;;;;2.88;1.80;;;;;;;17.04;33.62;98774.78;4980177;28;20410;-91
2022/04/11 15:24:06;;;;;;;5.20;2.00;;;;;;;17.04;34.75;98783.88;4980113;28;20474;-91
2022/04/11 15:29:18;;;;;;;5.57;3.30;;;;;;;17.16;31.57;98761.88;4977345;28;20047;-91
2022/04/11 15:31:44;;;;;;;2.88;2.25;;;;;;;17.15;30.54;98771.22;4974150;28;20101;-92
2022/04/11 15:34:20;;;;;;;3.25;2.00;;;;;;;17.10;30.95;98766.44;4973612;28;20047;-91
2022/04/11 15:36:51;;;;;;;2.85;2.22;;;;;;;17.09;32.49;98761.19;4977045;28;20467;-91
2022/04/11 15:39:18;;;;;;;4.05;2.17;;;;;;;16.90;32.31;98757.69;4973275;28;20615;-91
2022/04/11 15:41:45;;;;;;;2.35;1.85;;;;;;;16.93;33.29;98780.00;4972739;28;20058;-91
2022/04/11 15:44:12;;;;;;;4.70;2.05;;;;;;;16.94;33.71;98762.47;4975130;28;20073;-91
2022/04/11 15:46:56;;;;;;;4.75;2.03;;;;;;;16.86;31.90;98748.22;4988211;28;20105;-91
2022/04/11 15:49:26;;;;;;;4.95;2.30;;;;;;;16.72;31.13;98744.84;4985814;28;20055;-91
2022/04/11 15:51:53;;;;;;;4.40;2.10;;;;;;;16.44;31.46;98743.59;4990038;28;20166;-91
2022/04/11 15:54:19;;;;;;;3.00;1.95;;;;;;;16.46;31.72;98768.88;4991618;28;20050;-91
2022/04/11 15:56:46;;;;;;;3.08;1.75;;;;;;;16.35;34.14;98747.72;4991691;28;20077;-91
2022/04/11 15:59:14;;;;;;;4.55;2.00;;;;;;;16.41;33.49;98769.59;4992052;28;20062;-91
2022/04/11 16:01:42;;;;;;;4.13;2.08;;;;;;;16.39;32.43;98744.28;4991841;28;20058;-91
2022/04/11 16:04:11;;;;;;;6.10;1.85;;;;;;;16.42;32.36;98745.72;4987084;28;20059;-91
2022/04/11 16:06:39;;;;;;;2.67;2.13;;;;;;;16.24;33.90;98731.00;4975533;28;20065;-90
2022/04/11 16:09:07;;;;;;;2.83;2.05;;;;;;;16.28;34.20;98740.41;4972554;28;20047;-91
2022/04/11 16:11:33;;;;;;;9.27;1.88;;;;;;;16.26;33.98;98748.06;4980814;28;20123;-91
2022/04/11 16:14:00;;;;;;;4.97;2.20;;;;;;;16.24;34.45;98752.09;4991308;28;20060;-90
2022/04/11 16:16:27;;;;;;;3.85;2.35;;;;;;;16.01;34.56;98733.63;4991795;28;20157;-90
2022/04/11 16:18:56;;;;;;;4.05;2.17;;;;;;;15.83;35.03;98732.56;4986133;28;20050;-90
2022/04/11 16:21:27;;;;;;;3.33;2.33;;;;;;;15.73;34.83;98735.84;4974432;28;20054;-90
2022/04/11 16:23:54;;;;;;;4.45;2.50;;;;;;;15.56;35.57;98721.88;4977596;28;20497;-91
2022/04/11 16:26:21;;;;;;;4.18;2.22;;;;;;;15.53;35.74;98721.53;4986552;28;20089;-90
2022/04/11 16:28:49;;;;;;;4.35;2.35;;;;;;;15.39;35.81;98729.88;4983784;28;20485;-90
2022/04/11 16:31:30;;;;;;;3.30;2.30;;;;;;;15.28;36.00;98719.69;4991907;28;20080;-90
2022/04/11 16:34:05;;;;;;;3.85;1.92;;;;;;;15.33;36.69;98735.44;4991964;28;20058;-92
2022/04/11 16:36:46;;;;;;;5.95;2.50;;;;;;;15.33;37.31;98732.69;4992171;28;20062;-91
2022/04/11 16:39:16;;;;;;;3.47;2.55;;;;;;;15.17;38.15;98715.78;4991531;28;20077;-91
2022/04/11 16:41:42;;;;;;;;;;;;;;;15.25;37.42;98738.47;4992628;28;20144;-90
2022/04/11 16:44:10;;;;;;;5.60;1.98;;;;;;;15.16;38.91;98733.28;4999356;28;19922;-89
2022/04/11 16:46:39;;;;;;;5.22;1.98;;;;;;;15.07;38.92;98726.44;5004900;28;20058;-90
2022/04/11 16:49:12;;;;;;;3.72;2.05;;;;;;;14.97;37.88;98715.16;4991268;28;20072;-91
2022/04/11 16:51:49;;;;;;;4.15;2.30;;;;;;;14.99;37.28;98737.66;4973166;28;20498;-92
2022/04/11 16:54:18;;;;;;;2.45;2.08;;;;;;;14.74;37.25;98719.34;5051405;28;20055;-90
2022/04/11 16:56:53;;;;;;;3.42;2.42;;;;;;;14.73;38.31;98722.31;4985669;28;20077;-91
2022/04/11 16:59:20;;;;;;;3.08;1.83;;;;;;;14.79;39.29;98732.34;4973025;28;20108;-90
2022/04/11 17:01:48;;;;;;;2.38;2.08;;;;;;;14.67;39.21;98724.03;4971584;28;20050;-91
2022/04/11 17:04:22;;;;;;;4.95;2.42;;;;;;;14.61;39.02;98724.91;4975638;28;20078;-90
2022/04/11 17:06:53;;;;;;;3.75;2.10;;;;;;;14.55;38.47;98709.34;4987421;28;20050;-91
2022/04/11 17:09:53;;;;;;;4.47;1.73;;;;;;;14.53;38.27;98709.59;5001008;28;20141;-90
2022/04/11 17:13:01;;;;;;;;;;;;;;;;;;;;;
2022/04/11 17:21:55;;;;;;;6.00;2.03;;;;;;;14.09;41.35;98716.78;4976444;28;20134;-90
2022/04/11 17:24:37;;;;;;;4.75;2.10;;;;;;;14.06;42.04;98726.28;4981552;28;20057;-90
2022/04/11 17:27:08;;;;;;;3.13;1.73;;;;;;;13.96;42.98;98709.50;4989570;28;20058;-90
2022/04/11 17:29:36;;;;;;;3.63;1.73;;;;;;;13.97;42.81;98724.81;4989347;28;20105;-91
2022/04/11 17:32:22;;;;;;;3.47;1.95;;;;;;;13.66;43.21;98714.69;4989441;28;20058;-91
2022/04/11 17:34:49;;;;;;;2.65;1.58;;;;;;;13.63;43.61;98735.06;4987614;28;20055;-91
2022/04/11 17:37:17;;;;;;;3.30;2.05;;;;;;;13.52;43.36;98717.47;4979085;28;20054;-90
2022/04/11 17:39:54;;;;;;;4.85;2.20;;;;;;;13.55;43.28;98741.63;4970235;28;20054;-91
2022/04/11 17:42:28;;;;;;;4.20;2.28;;;;;;;13.44;43.58;98737.66;4986162;28;20713;-91
2022/04/11 17:45:31;;;;;;;3.35;2.00;;;;;;;13.31;44.72;98744.97;4985748;28;20142;-91
2022/04/11 17:51:16;;;;;;;5.85;2.35;;;;;;;12.96;45.39;98758.88;4973553;28;20083;-90
2022/04/11 17:53:53;;;;;;;7.63;3.95;;;;;;;12.92;44.96;98756.56;4976033;28;20059;-90
2022/04/11 17:56:33;;;;;;;4.13;2.20;;;;;;;12.80;45.26;98760.16;4972231;28;20093;-90
2022/04/11 17:59:28;;;;;;;6.60;1.88;;;;;;;12.51;46.43;98749.44;4982901;28;20050;-90
2022/04/11 18:02:09;;;;;;;3.28;1.90;;;;;;;12.45;46.87;98757.59;4982007;28;20049;-90
2022/04/11 18:04:38;;;;;;;3.72;2.22;;;;;;;12.36;46.25;98740.56;4983972;28;20138;-90
2022/04/11 18:07:05;;;;;;;7.03;2.30;;;;;;;12.32;46.48;98759.25;4989110;28;20046;-90
2022/04/11 18:09:33;;;;;;;5.57;2.83;;;;;;;12.08;46.97;98744.28;4974265;28;20441;-91
2022/04/11 18:12:06;;;;;;;8.13;2.15;;;;;;;11.93;47.87;98741.72;4986193;28;20055;-91
2022/04/11 18:14:39;;;;;;;4.63;2.10;;;;;;;11.68;49.00;98736.78;4974003;28;20050;-90
2022/04/11 18:17:09;;;;;;;3.20;2.05;;;;;;;11.47;50.14;98751.34;4972650;28;20054;-90
2022/04/11 18:19:36;;;;;;;4.35;2.00;;;;;;;11.30;51.09;98753.53;4974395;28;20565;-90
2022/04/11 18:22:11;;;;;;;4.03;2.97;;;;;;;11.16;51.23;98751.78;4975211;28;20089;-90
2022/04/11 18:24:40;;;;;;;9.30;2.90;;;;;;;11.27;50.27;98759.38;4982794;28;20055;-90
2022/04/11 18:27:24;;;;;;;5.15;2.60;;;;;;;11.19;50.85;98756.81;4974566;28;20439;-90
2022/04/11 18:32:41;;;;;;;4.78;2.17;;;;;;;10.97;51.91;98751.44;4985974;28;20061;-90
2022/04/11 18:35:17;;;;;;;3.80;2.40;;;;;;;10.95;51.21;98755.38;4982491;28;20106;-90
2022/04/11 18:37:57;;;;;;;6.22;2.13;;;;;;;10.87;52.05;98760.97;4984706;28;20116;-90
2022/04/11 18:40:55;;;;;;;3.20;2.08;;;;;;;11.14;51.31;98775.59;4985103;28;20079;-90
2022/04/11 18:43:53;;;;;;;4.10;2.30;;;;;;;11.12;51.00;98764.09;4985532;28;20112;-89
2022/04/11 18:46:39;;;;;;;4.55;2.45;;;;;;;11.06;51.82;98773.03;4940735;28;20056;-89
2022/04/11 18:49:08;;;;;;;3.72;2.10;;;;;;;11.09;51.57;98787.06;4934019;28;20058;-89
2022/04/11 18:51:45;;;;;;;6.63;3.72;;;;;;;10.94;52.71;98780.88;4959100;28;20081;-89
2022/04/11 18:54:15;;;;;;;5.93;3.65;;;;;;;10.92;52.81;98782.97;4990043;28;20061;-89
2022/04/11 18:56:43;;;;;;;5.68;2.45;;;;;;;10.84;52.71;98778.53;4981385;28;20046;-89
2022/04/11 18:59:14;;;;;;;4.70;2.58;;;;;;;10.90;52.65;98774.16;4992588;28;20070;-89
2022/04/11 19:01:42;;;;;;;4.13;2.35;;;;;;;10.83;52.98;98774.13;4991322;28;20050;-90
2022/04/11 19:04:12;;;;;;;4.18;2.53;;;;;;;10.85;52.85;98784.78;4979693;28;20047;-89
2022/04/11 19:06:39;;;;;;;6.97;2.95;;;;;;;10.79;53.33;98775.53;4971957;28;20066;-89
2022/04/11 19:09:08;;;;;;;5.53;3.20;;;;;;;10.76;53.31;98781.38;4972038;28;20051;-89
2022/04/11 19:11:35;;;;;;;6.28;3.13;;;;;;;10.84;52.50;98780.38;4983709;28;20050;-89
2022/04/11 19:14:02;;;;;;;7.57;3.13;;;;;;;10.83;53.12;98773.28;4986677;28;20220;-89
2022/04/11 19:16:35;;;;;;;6.43;3.35;;;;;;;10.83;53.10;98793.16;4981597;27;20055;-91
2022/04/11 19:19:05;;;;;;;8.05;4.10;;;;;;;10.82;53.73;98802.34;4972937;28;20501;-88
2022/04/11 19:21:36;;;;;;;;;;;;;;;10.78;54.09;98803.78;4984197;28;20058;-89
2022/04/11 19:24:04;;;;;;;6.68;3.47;;;;;;;10.55;54.12;98790.38;4970864;28;19929;-89
2022/04/11 19:26:34;;;;;;;4.72;2.53;;;;;;;10.55;54.61;98784.94;4972733;28;20116;-89
2022/04/11 19:29:19;;;;;;;9.23;2.90;;;;;;;10.59;54.34;98810.69;4970927;28;20081;-89
2022/04/11 19:31:52;;;;;;;7.65;3.20;;;;;;;10.51;54.86;98808.97;4981924;28;20066;-89
2022/04/11 19:34:29;;;;;;;6.28;3.17;;;;;;;10.40;55.32;98809.44;4989981;28;20050;-89
2022/04/11 19:37:02;;;;;;;6.75;2.92;;;;;;;10.35;55.62;98804.59;4989911;28;20046;-89
2022/04/11 19:39:32;;;;;;;5.28;2.58;;;;;;;10.30;55.62;98798.00;4990433;28;20050;-89
2022/04/11 19:41:59;;;;;;;5.78;3.17;;;;;;;10.24;55.24;98796.94;4980489;28;20046;-89
2022/04/11 19:44:29;;;;;;;5.85;3.17;;;;;;;10.30;55.96;98811.59;4970899;28;20054;-89
2022/04/11 19:47:05;;;;;;;7.60;3.42;;;;;;;10.26;56.26;98803.84;4981294;28;20092;-88
2022/04/11 19:49:52;;;;;;;11.77;4.10;;;;;;;10.23;56.17;98822.41;4984196;28;20108;-89
2022/04/11 19:52:30;;;;;;;6.55;3.42;;;;;;;10.09;57.35;98805.13;4970278;28;20050;-89
2022/04/11 19:54:56;;;;;;;5.75;3.47;;;;;;;10.00;56.49;98795.41;4979197;28;20091;-89
2022/04/11 19:57:31;;;;;;;7.15;3.22;;;;;;;9.92;57.60;98802.59;4990076;28;20065;-90
2022/04/11 20:00:00;;;;;;;5.88;3.50;;;;;;;9.92;56.78;98802.59;4981201;28;20121;-90
2022/04/11 20:02:37;;;;;;;6.50;3.20;;;;;;;9.94;57.95;98820.59;4973701;28;20043;-89
2022/04/11 20:05:15;;;;;;;6.05;3.10;;;;;;;9.85;57.02;98809.00;4988890;28;20080;-90
2022/04/11 20:07:45;;;;;;;8.25;3.85;;;;;;;9.90;57.88;98826.38;4983779;28;20582;-89
2022/04/11 20:10:25;;;;;;;6.20;3.35;;;;;;;9.86;57.67;98833.25;4970087;28;20059;-88
2022/04/11 20:12:57;;;;;;;8.35;3.17;;;;;;;9.83;58.01;98828.19;4978874;28;20081;-89
2022/04/11 20:15:26;;;;;;;10.18;3.40;;;;;;;9.71;58.49;98814.25;4987668;28;20042;-87
2022/04/11 20:17:55;;;;;;;8.75;3.33;;;;;;;9.66;58.67;98813.94;4978016;28;20145;-89
2022/04/11 20:20:22;;;;;;;6.03;3.38;;;;;;;9.68;59.27;98824.59;4970111;28;20582;-89
2022/04/11 20:22:49;;;;;;;4.90;3.20;;;;;;;9.59;59.00;98834.75;4969717;28;20053;-89
2022/04/11 20:25:19;;;;;;;7.28;3.50;;;;;;;9.52;59.39;98820.22;4969812;28;20494;-90
2022/04/11 20:27:46;;;;;;;6.00;3.35;;;;;;;9.50;59.63;98827.69;4971064;28;20082;-90
2022/04/11 20:30:16;;;;;;;10.68;2.97;;;;;;;9.42;59.88;98825.91;4969680;28;20538;-90
2022/04/11 20:32:43;;;;;;;4.85;2.95;;;;;;;9.30;60.11;98808.41;4978162;28;20062;-89
2022/04/11 20:35:14;;;;;;;6.20;3.15;;;;;;;9.38;60.35;98825.47;4990864;28;20077;-89
2022/04/11 20:38:04;;;;;;;5.43;2.97;;;;;;;9.34;59.71;98824.13;4982192;28;20382;-89
2022/04/11 20:40:48;;;;;;;4.78;3.22;;;;;;;9.23;60.65;98816.47;4985605;27;20065;-89
2022/04/11 20:43:19;;;;;;;6.60;3.30;;;;;;;9.29;60.39;98821.16;4989358;28;20050;-90
2022/04/11 20:49:45;;;;;;;5.53;3.10;;;;;;;9.17;60.63;98828.88;4981267;28;20042;-89
2022/04/11 20:52:14;;;;;;;5.60;3.30;;;;;;;9.12;60.97;98841.31;4962477;28;20149;-89
2022/04/11 20:57:48;;;;;;;6.45;3.28;;;;;;;9.02;60.98;98831.56;4954187;28;20112;-89
2022/04/11 21:00:24;;;;;;;5.75;2.90;;;;;;;8.95;61.24;98822.47;4970003;28;20059;-90
2022/04/11 21:02:52;;;;;;;10.57;3.58;;;;;;;8.97;61.45;98827.72;4952353;28;20051;-88
2022/04/11 21:05:19;;;;;;;7.28;3.42;;;;;;;8.90;61.32;98811.34;4963247;28;20047;-89
2022/04/11 21:07:48;;;;;;;6.10;3.58;;;;;;;8.89;60.40;98811.53;4952482;28;20052;-88
2022/04/11 21:10:15;;;;;;;5.88;3.15;;;;;;;9.00;61.08;98838.19;4952024;28;20134;-89
2022/04/11 21:12:44;;;;;;;6.28;3.58;;;;;;;8.94;61.03;98830.78;4971467;28;20492;-89
2022/04/11 21:15:10;;;;;;;5.10;3.63;;;;;;;8.88;62.25;98835.06;4970492;28;20425;-89
2022/04/11 21:17:37;;;;;;;6.53;3.47;;;;;;;8.79;61.62;98817.19;4970739;28;20539;-89
2022/04/11 21:20:07;;;;;;;5.43;2.88;;;;;;;8.68;61.37;98830.13;4968475;28;20051;-89
2022/04/11 21:22:33;;;;;;;7.03;3.78;;;;;;;8.83;61.42;98837.50;4970703;28;20065;-89
2022/04/11 21:25:04;;;;;;;5.53;3.45;;;;;;;8.78;61.56;98831.78;4970467;28;20108;-89
2022/04/11 21:27:31;;;;;;;8.00;3.45;;;;;;;8.79;61.61;98831.59;4955498;28;20043;-89
2022/04/11 21:29:58;;;;;;;7.15;3.83;;;;;;;8.74;61.44;98838.59;4956498;28;20302;-89
2022/04/11 21:32:24;;;;;;;6.05;3.55;;;;;;;8.74;61.72;98839.41;4955963;28;20054;-89
2022/04/11 21:34:51;;;;;;;5.38;3.10;;;;;;;8.73;61.39;98836.88;4968294;28;20413;-89
2022/04/11 21:37:18;;;;;;;5.68;3.33;;;;;;;8.70;62.49;98829.13;4970914;28;20409;-88
2022/04/11 21:39:44;;;;;;;4.82;3.20;;;;;;;8.59;62.94;98839.34;4969711;28;20124;-89
2022/04/11 21:42:13;;;;;;;6.22;3.28;;;;;;;8.39;63.26;98814.56;4970826;28;20043;-89
2022/04/11 21:44:39;;;;;;;7.72;3.67;;;;;;;8.41;63.66;98822.53;4958252;28;20066;-89
2022/04/11 21:47:07;;;;;;;5.35;3.35;;;;;;;8.50;62.46;98837.72;4961502;28;20130;-89
2022/04/11 21:49:34;;;;;;;12.00;3.78;;;;;;;8.56;62.05;98830.75;4970176;28;20161;-89
2022/04/11 21:52:04;;;;;;;5.68;2.72;;;;;;;8.49;62.72;98822.47;4963214;28;20101;-89
2022/04/11 21:54:31;;;;;;;5.65;3.42;;;;;;;8.43;64.30;98831.28;4971771;28;20058;-89
2022/04/11 21:56:58;;;;;;;5.13;3.08;;;;;;;8.32;63.94;98832.56;4971363;28;20112;-90
2022/04/11 21:59:30;;;;;;;5.63;3.58;;;;;;;8.30;62.24;98813.78;4971231;28;20058;-89
2022/04/11 22:01:57;;;;;;;8.95;3.55;;;;;;;8.44;62.62;98828.44;4955389;28;20051;-89
2022/04/11 22:04:24;;;;;;;10.60;3.60;;;;;;;8.52;62.87;98833.00;4954079;28;20059;-88
2022/04/11 22:06:50;;;;;;;8.43;3.33;;;;;;;8.41;63.13;98826.06;4951635;28;20051;-89
2022/04/11 22:09:21;;;;;;;6.65;3.45;;;;;;;8.36;63.49;98828.47;4956557;28;20136;-88
2022/04/11 22:11:50;;;;;;;8.38;3.65;;;;;;;8.31;62.52;98799.22;4962111;28;20051;-88
2022/04/11 22:14:17;;;;;;;6.07;3.58;;;;;;;8.38;63.14;98820.16;4951139;28;20134;-89
2022/04/11 22:16:45;;;;;;;6.90;3.95;;;;;;;8.31;63.37;98829.00;4951225;28;20413;-89
2022/04/11 22:19:12;;;;;;;5.65;3.63;;;;;;;8.36;62.86;98816.81;4958789;28;20046;-89
2022/04/11 22:21:39;;;;;;;7.97;3.72;;;;;;;8.27;62.92;98811.44;4967667;28;20486;-88
2022/04/11 22:24:07;;;;;;;8.93;4.10;;;;;;;8.32;63.12;98824.44;4956074;28;20059;-89
2022/04/11 22:26:35;;;;;;;6.93;3.53;;;;;;;8.35;63.22;98826.78;4962301;28;20507;-89
2022/04/11 22:29:05;;;;;;;7.93;3.30;;;;;;;8.17;63.90;98812.69;4970000;28;20369;-89
2022/04/11 22:31:34;;;;;;;;;;;;;;;8.27;64.44;98837.69;4970708;28;20563;-89
2022/04/11 22:34:02;;;;;;;8.32;3.78;;;;;;;8.05;64.89;98815.78;4969782;28;19969;-89
2022/04/11 22:36:29;;;;;;;6.47;3.40;;;;;;;8.18;64.67;98830.63;4968990;28;20051;-89
2022/04/11 22:38:56;;;;;;;6.47;3.40;;;;;;;8.19;64.10;98835.84;4968353;28;20165;-88
2022/04/11 22:41:22;;;;;;;9.70;3.90;;;;;;;8.07;64.64;98815.59;4961502;28;20082;-89
2022/04/11 22:43:50;;;;;;;5.65;3.55;;;;;;;8.08;64.97;98828.13;4950441;28;20051;-89
2022/04/11 22:46:17;;;;;;;6.82;3.38;;;;;;;8.00;65.59;98826.31;4957678;28;20050;-89
2022/04/11 22:48:45;;;;;;;8.10;3.28;;;;;;;7.83;65.49;98813.84;4970308;28;20137;-89
2022/04/11 22:51:13;;;;;;;7.10;3.40;;;;;;;7.94;66.24;98832.44;4962937;28;20487;-89
2022/04/11 22:53:40;;;;;;;8.40;3.25;;;;;;;7.86;66.22;98813.50;4968536;28;20102;-89
2022/04/11 22:56:10;;;;;;;6.45;3.15;;;;;;;7.90;66.60;98821.13;4961267;28;20486;-89